Clipper Imabari — 3ERD7 — position and weather

sailwx.info

Track history (hours):
 
Tides and Currents Weather Stations Pressure Air Temp Water Temp Dewpoint Dewpoint Depression Visibility Wind Speed Wind Dir Waves Ship Positions

Clipper Imabari

Last reported at 2016-Jun-24 21:32 UTC. Time now 2016-Jun-24 22:23 UTC.
Position N 39°13' W 076°29'.

Length 169 m; draft 8.2 m.

Type: Ship. MMSI: 370016000.

Date/timePositionNaut miles runAvg speedWind from/ knotsBaromVisibWave heightAir tempDewpointWater temp
2016-Jun-24 21:32N 39°13' W 076°29'0 0.0
2016-Jun-24 20:32N 39°13' W 076°29'0 0.0
2016-Jun-24 19:20N 39°13' W 076°29'0 0.0
2016-Jun-24 18:29N 39°13' W 076°29'0 0.0
2016-Jun-24 17:32N 39°13' W 076°29'0 0.0
2016-Jun-24 16:32N 39°13' W 076°29'0 0.0
2016-Jun-24 15:32N 39°13' W 076°29'0 0.0
2016-Jun-24 14:32N 39°13' W 076°29'0 0.0
2016-Jun-24 13:33N 39°13' W 076°29'3 2.5
2016-Jun-24 12:34N 39°11' W 076°27'10 9.9
2016-Jun-24 11:33N 39°01' W 076°23'1413.6
2016-Jun-24 10:33N 38°48' W 076°25'4113.6
2016-Jun-24 07:33N 38°08' W 076°13'1414.2
2016-Jun-24 06:33N 37°54' W 076°10'5513.7
2016-Jun-24 02:33N 36°60' W 076°01'13011.8
2016-Jun-23 15:32N 38°33' W 074°06'1413.5
2016-Jun-23 14:31N 38°46' W 074°04'4213.1
2016-Jun-23 11:18N 39°28' W 073°53'1213.0
2016-Jun-23 10:23N 39°39' W 073°52'1113.7
2016-Jun-23 09:33N 39°51' W 073°51'1312.7
2016-Jun-23 08:33N 40°04' W 073°50'1413.8
2016-Jun-23 07:34N 40°17' W 073°48'2110.6
2016-Jun-23 05:33N 40°36' W 074°02'3 2.6
2016-Jun-23 04:33N 40°38' W 074°04'0 0.0
2016-Jun-23 03:33N 40°38' W 074°04'0 0.0
2016-Jun-23 02:33N 40°38' W 074°04'0 0.0
2016-Jun-23 01:30N 40°38' W 074°04'0 0.0
2016-Jun-23 00:33N 40°38' W 074°04'0 0.1
2016-Jun-22 23:33N 40°38' W 074°04'2 1.5
2016-Jun-22 22:33N 40°40' W 074°03'5 5.1
2016-Jun-22 21:33N 40°43' W 073°58'  
2016-Jun-20 13:05N 41°10' W 072°42'814.5
2016-Jun-20 12:33N 41°09' W 072°32'1414.3
2016-Jun-20 11:34N 41°12' W 072°14'1612.9
2016-Jun-20 10:21N 41°15' W 071°54'1113.4
2016-Jun-20 09:33N 41°17' W 071°40'9 9.1
2016-Jun-20 08:33N 41°15' W 071°28'1111.1
2016-Jun-20 07:33N 41°04' W 071°23'1212.0
2016-Jun-20 06:33N 40°53' W 071°16'1212.4
2016-Jun-20 05:33N 40°44' W 071°06'1212.1
2016-Jun-20 04:33N 40°35' W 070°55'1212.4
2016-Jun-20 03:33N 40°25' W 070°44'  
Track history (hours):
 
Tides and Currents Weather Stations Pressure Air Temp Water Temp Dewpoint Dewpoint Depression Visibility Wind Speed Wind Dir Waves Ship Positions

Clipper Imabari

Last reported at 2016-Jun-24 21:32 UTC. Time now 2016-Jun-24 22:23 UTC.
Position N 39°13' W 076°29'.

Length 169 m; draft 8.2 m.

Type: Ship. MMSI: 370016000.

Date/timePositionNaut miles runAvg speedWind from/ knotsBaromVisibWave heightAir tempDewpointWater temp
2016-Jun-24 21:32N 39°13' W 076°29'0 0.0
2016-Jun-24 20:32N 39°13' W 076°29'0 0.0
2016-Jun-24 19:20N 39°13' W 076°29'0 0.0
2016-Jun-24 18:29N 39°13' W 076°29'0 0.0
2016-Jun-24 17:32N 39°13' W 076°29'0 0.0
2016-Jun-24 16:32N 39°13' W 076°29'0 0.0
2016-Jun-24 15:32N 39°13' W 076°29'0 0.0
2016-Jun-24 14:32N 39°13' W 076°29'0 0.0
2016-Jun-24 13:33N 39°13' W 076°29'3 2.5
2016-Jun-24 12:34N 39°11' W 076°27'10 9.9
2016-Jun-24 11:33N 39°01' W 076°23'1413.6
2016-Jun-24 10:33N 38°48' W 076°25'4113.6
2016-Jun-24 07:33N 38°08' W 076°13'1414.2
2016-Jun-24 06:33N 37°54' W 076°10'5513.7
2016-Jun-24 02:33N 36°60' W 076°01'13011.8
2016-Jun-23 15:32N 38°33' W 074°06'1413.5
2016-Jun-23 14:31N 38°46' W 074°04'4213.1
2016-Jun-23 11:18N 39°28' W 073°53'1213.0
2016-Jun-23 10:23N 39°39' W 073°52'1113.7
2016-Jun-23 09:33N 39°51' W 073°51'1312.7
2016-Jun-23 08:33N 40°04' W 073°50'1413.8
2016-Jun-23 07:34N 40°17' W 073°48'2110.6
2016-Jun-23 05:33N 40°36' W 074°02'3 2.6
2016-Jun-23 04:33N 40°38' W 074°04'0 0.0
2016-Jun-23 03:33N 40°38' W 074°04'0 0.0
2016-Jun-23 02:33N 40°38' W 074°04'0 0.0
2016-Jun-23 01:30N 40°38' W 074°04'0 0.0
2016-Jun-23 00:33N 40°38' W 074°04'0 0.1
2016-Jun-22 23:33N 40°38' W 074°04'2 1.5
2016-Jun-22 22:33N 40°40' W 074°03'5 5.1
2016-Jun-22 21:33N 40°43' W 073°58'  
2016-Jun-20 13:05N 41°10' W 072°42'814.5
2016-Jun-20 12:33N 41°09' W 072°32'1414.3
2016-Jun-20 11:34N 41°12' W 072°14'1612.9
2016-Jun-20 10:21N 41°15' W 071°54'1113.4
2016-Jun-20 09:33N 41°17' W 071°40'9 9.1
2016-Jun-20 08:33N 41°15' W 071°28'1111.1
2016-Jun-20 07:33N 41°04' W 071°23'1212.0
2016-Jun-20 06:33N 40°53' W 071°16'1212.4
2016-Jun-20 05:33N 40°44' W 071°06'1212.1
2016-Jun-20 04:33N 40°35' W 070°55'1212.4
2016-Jun-20 03:33N 40°25' W 070°44'  

Dump ship's entire track history